Gulf Bridge — A8JM5 — position and weather

sailwx.info

Track history (hours):
 
Tides and Currents Weather Stations Pressure Air Temp Water Temp Dewpoint Dewpoint Depression Visibility Wind Speed Wind Dir Waves Ship Positions

Gulf Bridge

Last reported at 2017-Jul-18 23:44 UTC. Time now 2017-Jul-25 00:26 UTC.
Position N 34°47' E 139°13'.

Length 213 m; beam 32.2 m; draft 11.5 m.

Type: Cargo ship. MMSI: 636091115.

Date/timePositionNaut miles runAvg speedWind from/ knotsBaromVisibWave heightAir tempDewpointWater temp
2017-Jul-18 23:44N 34°47' E 139°13'616.7
2017-Jul-18 23:23N 34°52' E 139°17'717.5
2017-Jul-18 22:59N 34°55' E 139°25'817.3
2017-Jul-18 22:30N 34°59' E 139°33'917.6
2017-Jul-18 22:00N 35°05' E 139°42'715.0
2017-Jul-18 21:30N 35°11' E 139°46'511.0
2017-Jul-18 21:00N 35°17' E 139°45'612.8
2017-Jul-18 20:31N 35°23' E 139°42'4 8.2
2017-Jul-18 20:01N 35°27' E 139°41'0 0.7
2017-Jul-18 19:28N 35°26' E 139°41'0 0.0
2017-Jul-18 18:58N 35°26' E 139°41'0 0.0
2017-Jul-18 18:28N 35°26' E 139°41'0 0.0
2017-Jul-18 17:55N 35°26' E 139°41'0 0.0
2017-Jul-18 17:28N 35°26' E 139°41'0 0.0
2017-Jul-18 16:58N 35°26' E 139°41'0 0.0
2017-Jul-18 16:28N 35°26' E 139°41'0 0.0
2017-Jul-18 15:58N 35°26' E 139°41'0 0.0
2017-Jul-18 15:28N 35°26' E 139°41'0 0.0
2017-Jul-18 14:58N 35°26' E 139°41'0 0.0
2017-Jul-18 13:58N 35°26' E 139°41'0 0.0
2017-Jul-18 13:30N 35°26' E 139°41'0 0.0
2017-Jul-18 13:00N 35°26' E 139°41'0 0.0
2017-Jul-18 12:30N 35°26' E 139°41'0 0.0
2017-Jul-18 12:00N 35°26' E 139°41'1 1.6
2017-Jul-18 11:30N 35°27' E 139°42'1 2.6
2017-Jul-18 11:00N 35°26' E 139°43'1 1.8
2017-Jul-18 10:30N 35°26' E 139°44'0 0.0
2017-Jul-18 10:00N 35°26' E 139°44'0 0.2
2017-Jul-18 09:30N 35°26' E 139°44'0 0.1
2017-Jul-18 09:00N 35°26' E 139°44'0 0.1
2017-Jul-18 08:30N 35°26' E 139°44'0 0.1
2017-Jul-18 08:00N 35°26' E 139°44'0 0.0
2017-Jul-18 07:30N 35°26' E 139°44'0 0.1
2017-Jul-18 07:00N 35°26' E 139°44'0 0.0
2017-Jul-18 06:30N 35°26' E 139°44'0 0.1
2017-Jul-18 06:00N 35°26' E 139°44'0 0.0
2017-Jul-18 05:27N 35°26' E 139°44'0 0.1
2017-Jul-18 05:00N 35°26' E 139°44'0 0.1
2017-Jul-18 04:30N 35°26' E 139°44'0 0.0
2017-Jul-18 04:00N 35°26' E 139°44'0 0.0
2017-Jul-18 03:30N 35°26' E 139°44'0 0.0
2017-Jul-18 03:00N 35°26' E 139°44'0 0.0
2017-Jul-18 02:30N 35°26' E 139°44'0 0.0
2017-Jul-18 02:00N 35°26' E 139°44'0 0.0
2017-Jul-18 01:30N 35°26' E 139°44'0 0.0
2017-Jul-18 01:00N 35°26' E 139°44'0 0.0
2017-Jul-18 00:30N 35°26' E 139°44'0 0.0
2017-Jul-18 00:00N 35°26' E 139°44'0 0.0
2017-Jul-17 23:30N 35°26' E 139°44'0 0.0
2017-Jul-17 23:00N 35°26' E 139°44'0 0.1
2017-Jul-17 22:30N 35°26' E 139°44'0 0.1
2017-Jul-17 22:00N 35°26' E 139°44'0 0.9
2017-Jul-17 21:30N 35°26' E 139°45'612.1
2017-Jul-17 21:00N 35°30' E 139°51'611.7
2017-Jul-17 20:31N 35°35' E 139°48'2 3.3
2017-Jul-17 20:00N 35°36' E 139°47'0 0.0
2017-Jul-17 19:25N 35°36' E 139°47'0 0.0
2017-Jul-17 18:58N 35°36' E 139°47'0 0.0
2017-Jul-17 18:28N 35°36' E 139°47'0 0.0
2017-Jul-17 17:55N 35°36' E 139°47'0 0.0
2017-Jul-17 17:28N 35°36' E 139°47'0 0.0
2017-Jul-17 16:58N 35°36' E 139°47'0 0.0
2017-Jul-17 16:28N 35°36' E 139°47'0 0.0
2017-Jul-17 15:55N 35°36' E 139°47'0 0.0
2017-Jul-17 15:28N 35°36' E 139°47'0 0.0
2017-Jul-17 14:58N 35°36' E 139°47'0 0.0
2017-Jul-17 14:28N 35°36' E 139°47'0 0.0
2017-Jul-17 13:58N 35°36' E 139°47'0 0.0
2017-Jul-17 13:28N 35°36' E 139°47'0 0.0
2017-Jul-17 12:55N 35°36' E 139°47'0 0.0
2017-Jul-17 12:25N 35°36' E 139°47'0 0.0
2017-Jul-17 11:58N 35°36' E 139°47'0 0.0
2017-Jul-17 11:28N 35°36' E 139°47'0 0.0
2017-Jul-17 10:55N 35°36' E 139°47'0 0.1
2017-Jul-17 10:30N 35°36' E 139°47'3 5.2
2017-Jul-17 10:01N 35°34' E 139°49'3 5.5
2017-Jul-17 09:30N 35°33' E 139°52'5 9.9
2017-Jul-17 09:00N 35°28' E 139°51'713.7
2017-Jul-17 08:31N 35°23' E 139°46'611.4
2017-Jul-17 08:00N 35°17' E 139°45'611.9
2017-Jul-17 07:31N 35°11' E 139°47'5 9.2
2017-Jul-17 07:01N 35°07' E 139°45'510.1
2017-Jul-17 06:30N 35°04' E 139°41'510.1
2017-Jul-17 06:01N 35°01' E 139°36'510.3
2017-Jul-17 05:30N 34°57' E 139°31'611.3
2017-Jul-17 05:00N 34°54' E 139°25'22610.4
2017-Jul-16 07:12N 34°01' E 134°58'313.8
2017-Jul-16 07:00N 34°03' E 134°58'913.3
2017-Jul-16 06:20N 34°12' E 134°58'310.1
2017-Jul-16 06:00N 34°16' E 134°58'815.1
2017-Jul-16 05:30N 34°23' E 135°01'917.5
2017-Jul-16 05:00N 34°29' E 135°08'917.6
2017-Jul-16 04:31N 34°35' E 135°15'4 8.9
2017-Jul-16 04:00N 34°40' E 135°14'0 0.5
2017-Jul-16 03:26N 34°40' E 135°14'0 0.0
2017-Jul-16 02:56N 34°40' E 135°14'0 0.0
2017-Jul-16 02:26N 34°40' E 135°14'0 0.0
2017-Jul-16 01:50N 34°40' E 135°14'0 0.0
2017-Jul-16 01:26N 34°40' E 135°14'0 0.0
2017-Jul-16 00:56N 34°40' E 135°14'0 0.0
2017-Jul-16 00:26N 34°40' E 135°14'0 0.0
2017-Jul-15 23:56N 34°40' E 135°14'0 0.0
2017-Jul-15 23:26N 34°40' E 135°14'0 0.0
2017-Jul-15 22:56N 34°40' E 135°14'0 0.0
2017-Jul-15 22:30N 34°40' E 135°14'2 5.0
2017-Jul-15 22:00N 34°38' E 135°16'5 9.8
2017-Jul-15 21:30N 34°39' E 135°22'2 2.4
2017-Jul-15 20:49N 34°39' E 135°24'0 0.0
2017-Jul-15 20:25N 34°39' E 135°24'0 0.0
2017-Jul-15 19:55N 34°39' E 135°24'0 0.0
2017-Jul-15 19:25N 34°39' E 135°24'0 0.0
2017-Jul-15 18:55N 34°39' E 135°24'0 0.0
2017-Jul-15 18:25N 34°39' E 135°24'0 0.0
2017-Jul-15 17:55N 34°39' E 135°24'0 0.0
2017-Jul-15 17:25N 34°39' E 135°24'0 0.0
2017-Jul-15 16:55N 34°39' E 135°24'0 0.0
2017-Jul-15 16:25N 34°39' E 135°24'0 0.0
2017-Jul-15 15:55N 34°39' E 135°24'0 0.0
2017-Jul-15 15:25N 34°39' E 135°24'0 0.0
2017-Jul-15 14:55N 34°39' E 135°24'0 0.0
2017-Jul-15 13:55N 34°39' E 135°24'0 0.0
2017-Jul-15 13:25N 34°39' E 135°24'0 0.0
2017-Jul-15 12:55N 34°39' E 135°24'0 0.0
2017-Jul-15 12:19N 34°39' E 135°24'0 0.0
2017-Jul-15 11:55N 34°39' E 135°24'0 0.0
2017-Jul-15 11:25N 34°39' E 135°24'0 0.0
2017-Jul-15 10:55N 34°39' E 135°24'0 0.0
2017-Jul-15 10:25N 34°39' E 135°24'0 0.3
2017-Jul-15 10:00N 34°39' E 135°24'4 7.6
2017-Jul-15 09:30N 34°36' E 135°21'713.6
2017-Jul-15 09:00N 34°32' E 135°14'815.1
2017-Jul-15 08:30N 34°27' E 135°08'917.5
2017-Jul-15 08:00N 34°20' E 135°02'815.9
2017-Jul-15 07:30N 34°12' E 134°59'612.3
2017-Jul-15 07:00N 34°06' E 134°59'815.4
2017-Jul-15 06:30N 33°58' E 134°59'  
2017-Jul-12 19:01N 22°53' E 120°01'019.0
2017-Jul-12 19:00N 22°53' E 120°01'918.4
2017-Jul-12 18:30N 22°45' E 120°06'918.6
2017-Jul-12 18:00N 22°37' E 120°11'714.2
2017-Jul-12 17:31N 22°33' E 120°17'2 4.3
2017-Jul-12 17:00N 22°33' E 120°20'1 1.4
2017-Jul-12 16:29N 22°34' E 120°19'0 0.0
2017-Jul-12 14:59N 22°34' E 120°19'0 0.0
2017-Jul-12 13:56N 22°34' E 120°19'0 0.0
2017-Jul-12 13:29N 22°34' E 120°19'0 0.0
2017-Jul-12 12:08N 22°34' E 120°19'0 0.0
2017-Jul-12 11:59N 22°34' E 120°19'0 0.0
2017-Jul-12 11:26N 22°34' E 120°19'0 0.0
2017-Jul-12 10:56N 22°34' E 120°19'0 0.0
2017-Jul-12 10:29N 22°34' E 120°19'0 0.0
2017-Jul-12 09:56N 22°34' E 120°19'0 0.0
2017-Jul-12 09:14N 22°34' E 120°19'0 0.0
2017-Jul-12 08:41N 22°34' E 120°19'0 0.0
2017-Jul-12 08:23N 22°34' E 120°19'0 0.0
2017-Jul-12 07:59N 22°34' E 120°19'0 0.0
2017-Jul-12 07:29N 22°34' E 120°19'0 0.0
2017-Jul-12 06:56N 22°34' E 120°19'0 0.0
2017-Jul-12 06:29N 22°34' E 120°19'0 0.0
2017-Jul-12 06:00N 22°34' E 120°19'1 3.0
2017-Jul-12 05:31N 22°33' E 120°18'3 5.2
2017-Jul-12 05:00N 22°32' E 120°15'1 2.2
2017-Jul-12 04:31N 22°32' E 120°14'4 7.9
2017-Jul-12 04:01N 22°31' E 120°10'5 9.3
2017-Jul-12 03:30N 22°30' E 120°05'5 9.3
2017-Jul-12 03:01N 22°29' E 119°60'5 9.3
2017-Jul-12 02:30N 22°28' E 119°55'5 9.9
2017-Jul-12 02:00N 22°26' E 119°50'  
Track history (hours):
 
Tides and Currents Weather Stations Pressure Air Temp Water Temp Dewpoint Dewpoint Depression Visibility Wind Speed Wind Dir Waves Ship Positions

Gulf Bridge

Last reported at 2017-Jul-18 23:44 UTC. Time now 2017-Jul-25 00:26 UTC.
Position N 34°47' E 139°13'.

Length 213 m; beam 32.2 m; draft 11.5 m.

Type: Cargo ship. MMSI: 636091115.

Date/timePositionNaut miles runAvg speedWind from/ knotsBaromVisibWave heightAir tempDewpointWater temp
2017-Jul-18 23:44N 34°47' E 139°13'616.7
2017-Jul-18 23:23N 34°52' E 139°17'717.5
2017-Jul-18 22:59N 34°55' E 139°25'817.3
2017-Jul-18 22:30N 34°59' E 139°33'917.6
2017-Jul-18 22:00N 35°05' E 139°42'715.0
2017-Jul-18 21:30N 35°11' E 139°46'511.0
2017-Jul-18 21:00N 35°17' E 139°45'612.8
2017-Jul-18 20:31N 35°23' E 139°42'4 8.2
2017-Jul-18 20:01N 35°27' E 139°41'0 0.7
2017-Jul-18 19:28N 35°26' E 139°41'0 0.0
2017-Jul-18 18:58N 35°26' E 139°41'0 0.0
2017-Jul-18 18:28N 35°26' E 139°41'0 0.0
2017-Jul-18 17:55N 35°26' E 139°41'0 0.0
2017-Jul-18 17:28N 35°26' E 139°41'0 0.0
2017-Jul-18 16:58N 35°26' E 139°41'0 0.0
2017-Jul-18 16:28N 35°26' E 139°41'0 0.0
2017-Jul-18 15:58N 35°26' E 139°41'0 0.0
2017-Jul-18 15:28N 35°26' E 139°41'0 0.0
2017-Jul-18 14:58N 35°26' E 139°41'0 0.0
2017-Jul-18 13:58N 35°26' E 139°41'0 0.0
2017-Jul-18 13:30N 35°26' E 139°41'0 0.0
2017-Jul-18 13:00N 35°26' E 139°41'0 0.0
2017-Jul-18 12:30N 35°26' E 139°41'0 0.0
2017-Jul-18 12:00N 35°26' E 139°41'1 1.6
2017-Jul-18 11:30N 35°27' E 139°42'1 2.6
2017-Jul-18 11:00N 35°26' E 139°43'1 1.8
2017-Jul-18 10:30N 35°26' E 139°44'0 0.0
2017-Jul-18 10:00N 35°26' E 139°44'0 0.2
2017-Jul-18 09:30N 35°26' E 139°44'0 0.1
2017-Jul-18 09:00N 35°26' E 139°44'0 0.1
2017-Jul-18 08:30N 35°26' E 139°44'0 0.1
2017-Jul-18 08:00N 35°26' E 139°44'0 0.0
2017-Jul-18 07:30N 35°26' E 139°44'0 0.1
2017-Jul-18 07:00N 35°26' E 139°44'0 0.0
2017-Jul-18 06:30N 35°26' E 139°44'0 0.1
2017-Jul-18 06:00N 35°26' E 139°44'0 0.0
2017-Jul-18 05:27N 35°26' E 139°44'0 0.1
2017-Jul-18 05:00N 35°26' E 139°44'0 0.1
2017-Jul-18 04:30N 35°26' E 139°44'0 0.0
2017-Jul-18 04:00N 35°26' E 139°44'0 0.0
2017-Jul-18 03:30N 35°26' E 139°44'0 0.0
2017-Jul-18 03:00N 35°26' E 139°44'0 0.0
2017-Jul-18 02:30N 35°26' E 139°44'0 0.0
2017-Jul-18 02:00N 35°26' E 139°44'0 0.0
2017-Jul-18 01:30N 35°26' E 139°44'0 0.0
2017-Jul-18 01:00N 35°26' E 139°44'0 0.0
2017-Jul-18 00:30N 35°26' E 139°44'0 0.0
2017-Jul-18 00:00N 35°26' E 139°44'0 0.0
2017-Jul-17 23:30N 35°26' E 139°44'0 0.0
2017-Jul-17 23:00N 35°26' E 139°44'0 0.1
2017-Jul-17 22:30N 35°26' E 139°44'0 0.1
2017-Jul-17 22:00N 35°26' E 139°44'0 0.9
2017-Jul-17 21:30N 35°26' E 139°45'612.1
2017-Jul-17 21:00N 35°30' E 139°51'611.7
2017-Jul-17 20:31N 35°35' E 139°48'2 3.3
2017-Jul-17 20:00N 35°36' E 139°47'0 0.0
2017-Jul-17 19:25N 35°36' E 139°47'0 0.0
2017-Jul-17 18:58N 35°36' E 139°47'0 0.0
2017-Jul-17 18:28N 35°36' E 139°47'0 0.0
2017-Jul-17 17:55N 35°36' E 139°47'0 0.0
2017-Jul-17 17:28N 35°36' E 139°47'0 0.0
2017-Jul-17 16:58N 35°36' E 139°47'0 0.0
2017-Jul-17 16:28N 35°36' E 139°47'0 0.0
2017-Jul-17 15:55N 35°36' E 139°47'0 0.0
2017-Jul-17 15:28N 35°36' E 139°47'0 0.0
2017-Jul-17 14:58N 35°36' E 139°47'0 0.0
2017-Jul-17 14:28N 35°36' E 139°47'0 0.0
2017-Jul-17 13:58N 35°36' E 139°47'0 0.0
2017-Jul-17 13:28N 35°36' E 139°47'0 0.0
2017-Jul-17 12:55N 35°36' E 139°47'0 0.0
2017-Jul-17 12:25N 35°36' E 139°47'0 0.0
2017-Jul-17 11:58N 35°36' E 139°47'0 0.0
2017-Jul-17 11:28N 35°36' E 139°47'0 0.0
2017-Jul-17 10:55N 35°36' E 139°47'0 0.1
2017-Jul-17 10:30N 35°36' E 139°47'3 5.2
2017-Jul-17 10:01N 35°34' E 139°49'3 5.5
2017-Jul-17 09:30N 35°33' E 139°52'5 9.9
2017-Jul-17 09:00N 35°28' E 139°51'713.7
2017-Jul-17 08:31N 35°23' E 139°46'611.4
2017-Jul-17 08:00N 35°17' E 139°45'611.9
2017-Jul-17 07:31N 35°11' E 139°47'5 9.2
2017-Jul-17 07:01N 35°07' E 139°45'510.1
2017-Jul-17 06:30N 35°04' E 139°41'510.1
2017-Jul-17 06:01N 35°01' E 139°36'510.3
2017-Jul-17 05:30N 34°57' E 139°31'611.3
2017-Jul-17 05:00N 34°54' E 139°25'22610.4
2017-Jul-16 07:12N 34°01' E 134°58'313.8
2017-Jul-16 07:00N 34°03' E 134°58'913.3
2017-Jul-16 06:20N 34°12' E 134°58'310.1
2017-Jul-16 06:00N 34°16' E 134°58'815.1
2017-Jul-16 05:30N 34°23' E 135°01'917.5
2017-Jul-16 05:00N 34°29' E 135°08'917.6
2017-Jul-16 04:31N 34°35' E 135°15'4 8.9
2017-Jul-16 04:00N 34°40' E 135°14'0 0.5
2017-Jul-16 03:26N 34°40' E 135°14'0 0.0
2017-Jul-16 02:56N 34°40' E 135°14'0 0.0
2017-Jul-16 02:26N 34°40' E 135°14'0 0.0
2017-Jul-16 01:50N 34°40' E 135°14'0 0.0
2017-Jul-16 01:26N 34°40' E 135°14'0 0.0
2017-Jul-16 00:56N 34°40' E 135°14'0 0.0
2017-Jul-16 00:26N 34°40' E 135°14'0 0.0
2017-Jul-15 23:56N 34°40' E 135°14'0 0.0
2017-Jul-15 23:26N 34°40' E 135°14'0 0.0
2017-Jul-15 22:56N 34°40' E 135°14'0 0.0
2017-Jul-15 22:30N 34°40' E 135°14'2 5.0
2017-Jul-15 22:00N 34°38' E 135°16'5 9.8
2017-Jul-15 21:30N 34°39' E 135°22'2 2.4
2017-Jul-15 20:49N 34°39' E 135°24'0 0.0
2017-Jul-15 20:25N 34°39' E 135°24'0 0.0
2017-Jul-15 19:55N 34°39' E 135°24'0 0.0
2017-Jul-15 19:25N 34°39' E 135°24'0 0.0
2017-Jul-15 18:55N 34°39' E 135°24'0 0.0
2017-Jul-15 18:25N 34°39' E 135°24'0 0.0
2017-Jul-15 17:55N 34°39' E 135°24'0 0.0
2017-Jul-15 17:25N 34°39' E 135°24'0 0.0
2017-Jul-15 16:55N 34°39' E 135°24'0 0.0
2017-Jul-15 16:25N 34°39' E 135°24'0 0.0
2017-Jul-15 15:55N 34°39' E 135°24'0 0.0
2017-Jul-15 15:25N 34°39' E 135°24'0 0.0
2017-Jul-15 14:55N 34°39' E 135°24'0 0.0
2017-Jul-15 13:55N 34°39' E 135°24'0 0.0
2017-Jul-15 13:25N 34°39' E 135°24'0 0.0
2017-Jul-15 12:55N 34°39' E 135°24'0 0.0
2017-Jul-15 12:19N 34°39' E 135°24'0 0.0
2017-Jul-15 11:55N 34°39' E 135°24'0 0.0
2017-Jul-15 11:25N 34°39' E 135°24'0 0.0
2017-Jul-15 10:55N 34°39' E 135°24'0 0.0
2017-Jul-15 10:25N 34°39' E 135°24'0 0.3
2017-Jul-15 10:00N 34°39' E 135°24'4 7.6
2017-Jul-15 09:30N 34°36' E 135°21'713.6
2017-Jul-15 09:00N 34°32' E 135°14'815.1
2017-Jul-15 08:30N 34°27' E 135°08'917.5
2017-Jul-15 08:00N 34°20' E 135°02'815.9
2017-Jul-15 07:30N 34°12' E 134°59'612.3
2017-Jul-15 07:00N 34°06' E 134°59'815.4
2017-Jul-15 06:30N 33°58' E 134°59'  
2017-Jul-12 19:01N 22°53' E 120°01'019.0
2017-Jul-12 19:00N 22°53' E 120°01'918.4
2017-Jul-12 18:30N 22°45' E 120°06'918.6
2017-Jul-12 18:00N 22°37' E 120°11'714.2
2017-Jul-12 17:31N 22°33' E 120°17'2 4.3
2017-Jul-12 17:00N 22°33' E 120°20'1 1.4
2017-Jul-12 16:29N 22°34' E 120°19'0 0.0
2017-Jul-12 14:59N 22°34' E 120°19'0 0.0
2017-Jul-12 13:56N 22°34' E 120°19'0 0.0
2017-Jul-12 13:29N 22°34' E 120°19'0 0.0
2017-Jul-12 12:08N 22°34' E 120°19'0 0.0
2017-Jul-12 11:59N 22°34' E 120°19'0 0.0
2017-Jul-12 11:26N 22°34' E 120°19'0 0.0
2017-Jul-12 10:56N 22°34' E 120°19'0 0.0
2017-Jul-12 10:29N 22°34' E 120°19'0 0.0
2017-Jul-12 09:56N 22°34' E 120°19'0 0.0
2017-Jul-12 09:14N 22°34' E 120°19'0 0.0
2017-Jul-12 08:41N 22°34' E 120°19'0 0.0
2017-Jul-12 08:23N 22°34' E 120°19'0 0.0
2017-Jul-12 07:59N 22°34' E 120°19'0 0.0
2017-Jul-12 07:29N 22°34' E 120°19'0 0.0
2017-Jul-12 06:56N 22°34' E 120°19'0 0.0
2017-Jul-12 06:29N 22°34' E 120°19'0 0.0
2017-Jul-12 06:00N 22°34' E 120°19'1 3.0
2017-Jul-12 05:31N 22°33' E 120°18'3 5.2
2017-Jul-12 05:00N 22°32' E 120°15'1 2.2
2017-Jul-12 04:31N 22°32' E 120°14'4 7.9
2017-Jul-12 04:01N 22°31' E 120°10'5 9.3
2017-Jul-12 03:30N 22°30' E 120°05'5 9.3
2017-Jul-12 03:01N 22°29' E 119°60'5 9.3
2017-Jul-12 02:30N 22°28' E 119°55'5 9.9
2017-Jul-12 02:00N 22°26' E 119°50'  

Dump ship's entire track history